createdAt,value
2018-04-02T00:01:47.785Z,88.70
2018-04-02T00:04:13.878Z,88.30
2018-04-02T00:06:39.948Z,88.10
2018-04-02T00:09:06.018Z,88.30
2018-04-02T00:11:32.138Z,88.10
2018-04-02T00:13:58.294Z,88.50
2018-04-02T00:16:25.190Z,88.10
2018-04-02T00:18:51.199Z,88.10
2018-04-02T00:21:18.043Z,87.90
2018-04-02T00:23:44.874Z,87.70
2018-04-02T00:26:10.978Z,87.70
2018-04-02T00:28:37.074Z,88.20
2018-04-02T00:31:03.170Z,88.40
2018-04-02T00:33:29.296Z,88.40
2018-04-02T00:35:55.385Z,88.30
2018-04-02T00:38:21.493Z,88.70
2018-04-02T00:40:47.584Z,88.60
2018-04-02T00:43:13.707Z,88.80
2018-04-02T00:45:40.514Z,89.50
2018-04-02T00:48:06.610Z,89.50
2018-04-02T00:50:32.781Z,89.10
2018-04-02T00:52:58.878Z,89.20
2018-04-02T00:55:25.710Z,89.40
2018-04-02T00:57:51.830Z,89.40
2018-04-02T01:00:17.956Z,89.50
2018-04-02T01:02:44.087Z,89.70
2018-04-02T01:05:10.206Z,89.80
2018-04-02T01:07:37.152Z,90.00
2018-04-02T01:10:03.280Z,90.10
2018-04-02T01:12:29.409Z,90.30
2018-04-02T01:14:55.706Z,90.40
2018-04-02T01:17:21.791Z,90.50
2018-04-02T01:19:47.851Z,90.50
2018-04-02T01:22:14.674Z,90.80
2018-04-02T01:24:40.753Z,90.80
2018-04-02T01:27:06.847Z,90.80
2018-04-02T01:29:33.006Z,90.90
2018-04-02T01:31:59.868Z,91.20
2018-04-02T01:34:26.698Z,91.00
2018-04-02T01:36:52.833Z,91.00
2018-04-02T01:39:18.927Z,91.10
2018-04-02T01:41:45.054Z,91.00
2018-04-02T01:44:11.148Z,91.10
2018-04-02T01:46:37.254Z,91.20
2018-04-02T01:49:03.430Z,91.30
2018-04-02T01:51:29.532Z,91.40
2018-04-02T01:53:56.377Z,91.50
2018-04-02T01:56:22.475Z,91.50
2018-04-02T01:58:49.366Z,91.60
2018-04-02T02:01:15.491Z,91.50
2018-04-02T02:03:41.570Z,91.60
2018-04-02T02:06:07.703Z,91.50
2018-04-02T02:08:33.819Z,91.60
2018-04-02T02:10:59.902Z,91.60
2018-04-02T02:13:26.039Z,91.60
2018-04-02T02:15:52.151Z,91.40
2018-04-02T02:18:18.252Z,91.50
2018-04-02T02:20:45.116Z,91.60
2018-04-02T02:23:11.228Z,91.60
2018-04-02T02:25:37.338Z,91.60
2018-04-02T02:28:03.438Z,91.70
2018-04-02T02:30:29.616Z,91.60
2018-04-02T02:32:56.401Z,91.60
2018-04-02T02:35:23.226Z,92.00
2018-04-02T02:37:49.329Z,91.70
2018-04-02T02:40:15.407Z,91.80
2018-04-02T02:42:41.523Z,91.70
2018-04-02T02:45:07.677Z,91.70
2018-04-02T02:47:33.808Z,91.70
2018-04-02T02:49:59.899Z,91.70
2018-04-02T02:52:26.728Z,91.70
2018-04-02T02:54:52.824Z,91.70
2018-04-02T02:57:18.915Z,91.60
2018-04-02T02:59:45.006Z,91.90
2018-04-02T03:02:11.136Z,91.70
2018-04-02T03:04:37.250Z,91.70
2018-04-02T03:07:03.338Z,91.70
2018-04-02T03:09:29.489Z,91.70
2018-04-02T03:11:55.590Z,91.80
2018-04-02T03:14:22.440Z,92.10
2018-04-02T03:16:48.562Z,92.10
2018-04-02T03:19:14.689Z,92.20
2018-04-02T03:21:41.518Z,92.10
2018-04-02T03:24:07.608Z,92.00
2018-04-02T03:26:33.716Z,91.90
2018-04-02T03:29:00.555Z,91.80
2018-04-02T03:31:26.655Z,91.70
2018-04-02T03:33:52.796Z,91.60
2018-04-02T03:36:18.951Z,91.70
2018-04-02T03:38:45.051Z,91.70
2018-04-02T03:41:11.114Z,91.70
2018-04-02T03:43:37.266Z,91.90
2018-04-02T03:46:03.342Z,91.80
2018-04-02T03:57:37.603Z,91.60
2018-04-02T04:00:03.714Z,91.60
2018-04-02T04:02:30.582Z,91.60
2018-04-02T04:04:57.462Z,91.60
2018-04-02T04:07:23.628Z,91.60
2018-04-02T04:09:49.751Z,91.60
2018-04-02T04:12:15.869Z,91.80
2018-04-02T04:14:41.971Z,91.90
2018-04-02T04:17:08.129Z,92.00
2018-04-02T04:19:34.978Z,92.00
2018-04-02T04:22:01.818Z,92.00
2018-04-02T04:24:27.958Z,92.00
2018-04-02T04:26:54.102Z,92.00
2018-04-02T04:29:20.231Z,92.10
2018-04-02T04:31:46.324Z,92.00
2018-04-02T04:34:12.435Z,91.80
2018-04-02T04:36:38.576Z,91.90
2018-04-02T04:39:04.703Z,91.80
2018-04-02T04:41:31.543Z,91.80
2018-04-02T04:43:57.666Z,91.80
2018-04-02T04:46:23.838Z,91.70
2018-04-02T04:48:49.943Z,91.70
2018-04-02T04:51:16.018Z,91.70
2018-04-02T04:53:42.891Z,91.70
2018-04-02T04:56:08.994Z,91.70
2018-04-02T04:58:35.066Z,91.80
2018-04-02T05:01:01.142Z,91.90
2018-04-02T05:03:27.288Z,91.90
2018-04-02T05:05:53.446Z,92.00
2018-04-02T05:08:19.539Z,91.90
2018-04-02T05:10:45.669Z,91.90
2018-04-02T05:13:11.807Z,92.00
2018-04-02T05:15:37.911Z,92.10
2018-04-02T05:18:04.030Z,91.90
2018-04-02T05:20:30.134Z,91.70
2018-04-02T05:22:56.270Z,91.60
2018-04-02T05:25:22.374Z,91.60
2018-04-02T05:27:49.223Z,91.70
2018-04-02T05:30:16.423Z,91.50
2018-04-02T05:32:43.327Z,91.30
2018-04-02T05:35:09.445Z,91.30
2018-04-02T05:37:35.550Z,91.40
2018-04-02T05:40:01.651Z,91.20
2018-04-02T05:42:27.783Z,91.10
2018-04-02T05:44:53.899Z,90.90
2018-04-02T05:47:20.786Z,90.60
2018-04-02T05:49:47.647Z,90.80
2018-04-02T05:52:14.495Z,90.50
2018-04-02T05:54:40.657Z,90.50
2018-04-02T05:57:07.526Z,90.30
2018-04-02T05:59:33.666Z,90.30
2018-04-02T06:01:59.799Z,90.30
2018-04-02T06:04:25.907Z,90.20
2018-04-02T06:06:52.752Z,90.00
2018-04-02T06:09:18.931Z,90.00
2018-04-02T06:11:45.097Z,90.00
2018-04-02T06:14:11.170Z,90.00
2018-04-02T06:16:37.299Z,89.90
2018-04-02T06:19:03.412Z,89.80
2018-04-02T06:21:29.506Z,89.40
2018-04-02T06:23:55.652Z,89.30
2018-04-02T06:26:21.768Z,89.10
2018-04-02T06:28:48.634Z,88.70
2018-04-02T06:31:15.475Z,88.80
2018-04-02T06:33:41.567Z,88.70
2018-04-02T06:36:07.679Z,88.80
2018-04-02T06:38:33.818Z,88.70
2018-04-02T06:40:59.899Z,87.90
2018-04-02T06:43:26.292Z,87.40
2018-04-02T06:45:52.390Z,86.80
2018-04-02T06:48:18.540Z,86.90
2018-04-02T06:50:45.063Z,86.50
2018-04-02T06:53:11.156Z,86.30
2018-04-02T06:55:37.286Z,85.60
2018-04-02T06:58:04.191Z,84.30
2018-04-02T07:00:30.305Z,84.30
2018-04-02T07:02:56.448Z,84.60
2018-04-02T07:05:22.785Z,84.30
2018-04-02T07:07:48.925Z,83.80
2018-04-02T07:10:15.700Z,83.80
2018-04-02T07:12:42.696Z,83.50
2018-04-02T07:15:08.921Z,83.40
2018-04-02T07:17:35.098Z,83.50
2018-04-02T07:20:01.274Z,83.20
2018-04-02T07:22:27.556Z,82.40
2018-04-02T07:24:53.697Z,81.60
2018-04-02T07:27:19.827Z,81.60
2018-04-02T07:29:46.032Z,80.90
2018-04-02T07:32:12.211Z,80.20
2018-04-02T07:34:38.432Z,80.20
2018-04-02T07:37:04.644Z,80.40
2018-04-02T07:39:30.892Z,79.80
2018-04-02T07:41:57.155Z,79.40
2018-04-02T07:44:24.943Z,79.20
2018-04-02T07:46:57.572Z,78.60
2018-04-02T07:49:28.774Z,78.20
2018-04-02T07:51:56.664Z,78.20
2018-04-02T07:54:28.172Z,78.00
2018-04-02T07:56:58.385Z,76.80
2018-04-02T07:59:27.954Z,77.30
2018-04-02T08:01:57.389Z,77.00
2018-04-02T08:04:28.019Z,75.40
2018-04-02T08:06:54.695Z,75.40
2018-04-02T08:09:26.966Z,75.00
2018-04-02T08:11:54.147Z,74.50
2018-04-02T08:14:27.067Z,74.50
2018-04-02T08:16:57.240Z,73.00
2018-04-02T08:19:24.148Z,73.80
2018-04-02T08:21:50.274Z,73.80
2018-04-02T08:24:16.471Z,73.20
2018-04-02T08:26:43.429Z,72.10
2018-04-02T08:29:09.651Z,72.00
2018-04-02T08:31:37.082Z,71.10
2018-04-02T08:36:58.279Z,70.40
2018-04-02T08:39:24.664Z,70.10
2018-04-02T08:41:50.890Z,69.80
2018-04-02T08:44:27.294Z,70.00
2018-04-02T08:46:54.315Z,69.80
2018-04-02T08:49:20.479Z,68.50
2018-04-02T08:51:56.691Z,67.00
2018-04-02T08:54:29.081Z,66.30
2018-04-02T08:56:55.247Z,66.00
2018-04-02T08:59:21.374Z,65.80
2018-04-02T09:01:47.512Z,65.20
2018-04-02T09:04:13.675Z,64.10
2018-04-02T09:06:40.522Z,64.50
2018-04-02T09:09:06.663Z,64.40
2018-04-02T09:11:33.012Z,64.40
2018-04-02T09:13:59.935Z,64.00
2018-04-02T09:16:26.072Z,64.00
2018-04-02T09:18:52.271Z,64.70
2018-04-02T09:21:19.231Z,64.90
2018-04-02T09:23:45.475Z,64.70
2018-04-02T09:26:11.872Z,63.10
2018-04-02T09:28:38.062Z,62.50
2018-04-02T09:31:04.266Z,62.30
2018-04-02T09:45:26.726Z,60.40
2018-04-02T09:47:54.104Z,59.50
2018-04-02T09:50:21.419Z,59.40
2018-04-02T09:52:47.639Z,59.30
2018-04-02T09:55:14.157Z,59.20
2018-04-02T09:57:40.242Z,58.40
2018-04-02T10:00:06.449Z,57.50
2018-04-02T10:02:35.497Z,57.50
2018-04-02T10:05:01.751Z,56.60
2018-04-02T10:07:28.035Z,57.00
2018-04-02T10:09:58.186Z,57.10
2018-04-02T10:12:24.571Z,57.10
2018-04-02T10:14:50.790Z,56.00
2018-04-02T10:17:16.898Z,55.60
2018-04-02T10:19:43.864Z,54.90
2018-04-02T10:22:10.769Z,55.00
2018-04-02T10:24:36.931Z,55.00
2018-04-02T10:27:03.974Z,52.30
2018-04-02T10:29:30.103Z,52.50
2018-04-02T10:31:56.221Z,51.10
2018-04-02T10:34:23.346Z,50.60
2018-04-02T10:36:49.434Z,50.60
2018-04-02T10:39:15.563Z,49.80
2018-04-02T10:41:41.747Z,49.30
2018-04-02T10:44:07.854Z,48.70
2018-04-02T10:46:34.235Z,48.20
2018-04-02T10:49:00.343Z,49.00
2018-04-02T10:51:26.430Z,48.70
2018-04-02T10:53:52.593Z,49.50
2018-04-02T10:56:18.743Z,48.70
2018-04-02T10:58:44.838Z,49.20
2018-04-02T11:01:11.406Z,48.60
2018-04-02T11:03:38.538Z,48.20
2018-04-02T11:06:05.011Z,48.40
2018-04-02T11:08:31.186Z,48.00
2018-04-02T11:10:57.313Z,48.60
2018-04-02T11:13:23.436Z,48.70
2018-04-02T11:15:50.295Z,48.00
2018-04-02T11:18:17.137Z,48.30
2018-04-02T11:20:43.239Z,48.70
2018-04-02T11:23:09.334Z,48.00
2018-04-02T11:25:36.206Z,48.60
2018-04-02T11:28:02.367Z,48.60
2018-04-02T11:30:28.497Z,49.40
2018-04-02T11:32:54.871Z,49.10
2018-04-02T11:35:21.070Z,49.00
2018-04-02T11:37:47.178Z,48.90
2018-04-02T11:40:13.286Z,48.40
2018-04-02T11:42:39.542Z,48.70
2018-04-02T11:45:06.522Z,47.50
2018-04-02T11:47:32.638Z,47.40
2018-04-02T11:49:58.778Z,46.90
2018-04-02T11:52:24.894Z,48.40
2018-04-02T11:54:51.070Z,47.20
2018-04-02T11:57:17.190Z,47.00
2018-04-02T11:59:43.254Z,47.20
2018-04-02T12:02:09.500Z,46.90
2018-04-02T12:04:35.677Z,47.00
2018-04-02T12:07:01.799Z,46.70
2018-04-02T12:09:28.204Z,47.20
2018-04-02T12:11:54.485Z,47.50
2018-04-02T12:14:20.598Z,46.70
2018-04-02T12:16:47.467Z,46.30
2018-04-02T12:19:14.318Z,46.30
2018-04-02T12:21:41.499Z,46.70
2018-04-02T12:24:07.598Z,46.60
2018-04-02T12:26:33.738Z,47.90
2018-04-02T12:28:59.858Z,47.80
2018-04-02T12:31:25.971Z,46.20
2018-04-02T12:33:52.306Z,46.20
2018-04-02T12:36:18.436Z,47.20
2018-04-02T12:38:44.547Z,47.70
2018-04-02T12:41:11.059Z,47.10
2018-04-02T12:43:37.168Z,47.50
2018-04-02T12:46:03.302Z,46.80
2018-04-02T12:48:29.486Z,47.20
2018-04-02T12:50:55.558Z,47.70
2018-04-02T12:53:22.386Z,47.60
2018-04-02T12:55:48.462Z,47.50
2018-04-02T12:58:15.311Z,47.60
2018-04-02T13:00:42.126Z,46.40
2018-04-02T13:03:08.232Z,46.40
2018-04-02T13:05:34.352Z,46.50
2018-04-02T13:08:00.463Z,46.70
2018-04-02T13:10:26.577Z,46.90
2018-04-02T13:12:52.751Z,46.00
2018-04-02T13:15:19.199Z,46.00
2018-04-02T13:17:45.683Z,45.20
2018-04-02T13:20:12.290Z,45.50
2018-04-02T13:22:38.584Z,45.40
2018-04-02T13:25:10.639Z,45.80
2018-04-02T13:27:36.926Z,45.90
2018-04-02T13:30:03.473Z,46.30
2018-04-02T13:32:29.582Z,44.30
2018-04-02T13:34:56.145Z,44.70
2018-04-02T13:40:20.855Z,43.70
2018-04-02T13:42:46.982Z,42.70
2018-04-02T13:45:15.461Z,42.70
2018-04-02T13:47:42.043Z,42.70
2018-04-02T13:50:14.978Z,42.70
2018-04-02T13:52:42.032Z,43.10
2018-04-02T13:55:15.236Z,42.60
2018-04-02T13:57:41.380Z,41.90
2018-04-02T14:00:07.490Z,41.70
2018-04-02T14:02:33.694Z,40.80
2018-04-02T14:04:59.865Z,40.90
2018-04-02T14:07:26.127Z,41.70
2018-04-02T14:09:52.308Z,41.20
2018-04-02T14:12:18.715Z,41.60
2018-04-02T14:14:48.435Z,41.50
2018-04-02T14:19:54.706Z,42.30
2018-04-02T14:22:21.057Z,43.50
2018-04-02T14:24:48.171Z,48.20
2018-04-02T14:27:14.249Z,48.20
2018-04-02T14:29:40.491Z,46.70
2018-04-02T14:32:06.690Z,45.90
2018-04-02T14:34:33.296Z,45.70
2018-04-02T14:37:00.946Z,46.30
2018-04-02T14:39:27.059Z,46.40
2018-04-02T14:41:53.538Z,44.40
2018-04-02T14:44:19.647Z,43.50
2018-04-02T14:46:45.738Z,43.20
2018-04-02T14:49:11.842Z,42.90
2018-04-02T14:51:38.363Z,43.60
2018-04-02T14:54:05.038Z,43.00
2018-04-02T14:56:32.381Z,42.00
2018-04-02T14:58:58.833Z,42.90
2018-04-02T15:01:25.772Z,43.40
2018-04-02T15:03:51.950Z,43.40
2018-04-02T15:06:18.067Z,43.80
2018-04-02T15:33:06.988Z,44.70
2018-04-02T15:35:33.601Z,45.50
2018-04-02T15:37:59.995Z,45.80
2018-04-02T15:40:26.647Z,46.00
2018-04-02T15:42:52.786Z,47.20
2018-04-02T15:45:18.938Z,46.50
2018-04-02T15:47:46.024Z,47.00
2018-04-02T15:50:12.171Z,47.20
2018-04-02T15:52:38.326Z,46.90
2018-04-02T15:55:04.459Z,47.30
2018-04-02T15:57:31.405Z,47.90
2018-04-02T15:59:57.568Z,47.80
2018-04-02T16:02:24.598Z,49.40
2018-04-02T16:04:50.767Z,49.30
2018-04-02T16:07:16.920Z,50.50
2018-04-02T16:09:43.059Z,50.40
2018-04-02T16:12:11.349Z,50.70
2018-04-02T16:17:27.217Z,51.20
2018-04-02T16:19:53.363Z,51.20
2018-04-02T16:22:19.584Z,50.90
2018-04-02T16:24:45.742Z,51.00
2018-04-02T16:27:12.127Z,50.70
2018-04-02T16:29:39.059Z,51.00
2018-04-02T16:32:05.292Z,51.00
2018-04-02T16:34:31.627Z,51.20
2018-04-02T16:36:57.801Z,51.00
2018-04-02T16:39:26.484Z,50.60
2018-04-02T16:41:53.648Z,50.50
2018-04-02T16:44:19.908Z,50.70
2018-04-02T16:46:47.029Z,50.80
2018-04-02T18:29:36.651Z,69.30
2018-04-02T18:56:30.726Z,73.10
2018-04-02T18:58:57.622Z,74.30
2018-04-02T19:01:23.850Z,73.60
2018-04-02T19:03:49.983Z,73.50
2018-04-02T19:06:16.103Z,74.60
2018-04-02T19:08:43.127Z,75.60
2018-04-02T19:11:09.720Z,75.50
2018-04-02T19:13:36.590Z,76.80
2018-04-02T19:16:02.715Z,76.80
2018-04-02T19:18:29.600Z,77.60
2018-04-02T19:20:55.730Z,77.60
2018-04-02T19:23:21.847Z,77.50
2018-04-02T19:25:48.015Z,77.50
2018-04-02T19:28:14.140Z,77.90
2018-04-02T19:30:40.396Z,77.90
2018-04-02T19:33:06.942Z,78.10
2018-04-02T19:35:33.171Z,79.80
2018-04-02T19:37:59.483Z,80.10
2018-04-02T19:40:26.316Z,80.00
2018-04-02T19:42:53.229Z,80.40
2018-04-02T19:45:19.460Z,80.20
2018-04-02T19:47:45.685Z,79.60
2018-04-02T19:50:12.813Z,79.70
2018-04-02T19:52:39.358Z,80.60
2018-04-02T19:55:05.463Z,79.70
2018-04-02T19:57:31.608Z,79.10
2018-04-02T19:59:58.274Z,79.30
2018-04-02T20:02:24.401Z,79.30
2018-04-02T20:04:50.569Z,79.00
2018-04-02T20:07:16.859Z,79.80
2018-04-02T20:09:43.102Z,79.60
2018-04-02T20:12:09.536Z,79.60
2018-04-02T20:14:36.511Z,79.70
2018-04-02T20:17:02.628Z,79.70
2018-04-02T20:19:29.760Z,79.30
2018-04-02T20:21:56.001Z,79.10
2018-04-02T20:24:22.449Z,79.40
2018-04-02T20:26:48.656Z,79.00
2018-04-02T20:29:15.072Z,80.00
2018-04-02T20:31:41.224Z,79.90
2018-04-02T20:34:07.404Z,80.60
2018-04-02T20:36:33.527Z,80.50
2018-04-02T20:38:59.602Z,80.70
2018-04-02T20:41:25.725Z,81.70
2018-04-02T20:43:51.851Z,81.70
2018-04-02T20:46:17.970Z,81.50
2018-04-02T20:48:44.258Z,81.60
2018-04-02T20:51:11.153Z,82.20
2018-04-02T20:53:37.352Z,82.20
2018-04-02T20:56:03.474Z,81.80
2018-04-02T20:58:30.339Z,81.90
2018-04-02T21:00:56.489Z,81.90
2018-04-02T21:03:22.699Z,81.80
2018-04-02T21:05:48.812Z,81.60
2018-04-02T21:08:14.947Z,82.10
2018-04-02T21:10:41.150Z,82.20
2018-04-02T21:13:07.308Z,82.20
2018-04-02T21:15:34.176Z,81.90
2018-04-02T21:18:01.298Z,81.90
2018-04-02T21:20:27.472Z,82.10
2018-04-02T21:22:53.619Z,82.20
2018-04-02T21:25:20.645Z,82.10
2018-04-02T21:27:46.863Z,82.10
2018-04-02T21:30:12.994Z,82.20
2018-04-02T21:32:39.087Z,82.30
2018-04-02T21:35:05.270Z,82.70
2018-04-02T21:37:31.379Z,83.40
2018-04-02T21:40:11.966Z,83.10
2018-04-02T21:42:38.272Z,83.50
2018-04-02T21:45:04.400Z,83.20
2018-04-02T21:47:30.541Z,83.50
2018-04-02T21:49:56.638Z,82.80
2018-04-02T21:52:23.495Z,82.20
2018-04-02T21:54:50.359Z,81.80
2018-04-02T21:57:16.819Z,81.80
2018-04-02T21:59:43.638Z,81.60
2018-04-02T22:02:10.004Z,81.60
2018-04-02T22:04:36.112Z,80.60
2018-04-02T22:07:04.133Z,80.60
2018-04-02T22:09:30.502Z,80.10
2018-04-02T22:11:56.622Z,79.50
2018-04-02T22:14:22.748Z,79.20
2018-04-02T22:16:48.912Z,78.90
2018-04-02T22:19:15.148Z,79.10
2018-04-02T22:21:42.434Z,78.20
2018-04-02T22:24:09.006Z,78.10
2018-04-02T22:26:35.851Z,78.20
2018-04-02T22:29:02.707Z,78.60
2018-04-02T22:31:29.594Z,78.00
2018-04-02T22:33:55.707Z,78.70
2018-04-02T22:36:21.898Z,77.00
2018-04-02T22:38:48.008Z,77.20
2018-04-02T22:41:14.138Z,78.10
2018-04-02T22:43:40.292Z,77.50
2018-04-02T22:46:06.439Z,77.40
2018-04-02T22:48:32.518Z,77.20
2018-04-02T22:50:58.649Z,77.50
2018-04-02T22:53:24.746Z,77.70
2018-04-02T22:55:50.848Z,78.60
2018-04-02T22:58:16.958Z,78.20
2018-04-02T23:00:43.119Z,78.70
2018-04-02T23:03:09.244Z,78.80
2018-04-02T23:05:35.389Z,79.90
2018-04-02T23:08:01.516Z,79.50
2018-04-02T23:10:27.752Z,79.00
2018-04-02T23:12:53.845Z,78.80
2018-04-02T23:15:19.931Z,78.50
2018-04-02T23:17:46.040Z,78.10
2018-04-02T23:20:12.154Z,78.80
2018-04-02T23:22:51.270Z,79.70
2018-04-02T23:25:17.370Z,79.60
2018-04-02T23:27:43.466Z,79.50
2018-04-02T23:30:10.363Z,80.70
2018-04-02T23:32:36.495Z,80.70
2018-04-02T23:35:02.620Z,81.30
2018-04-02T23:37:28.717Z,81.00
2018-04-02T23:39:54.828Z,81.10
2018-04-02T23:42:20.939Z,80.70
2018-04-02T23:44:47.062Z,81.50
2018-04-02T23:47:13.185Z,81.80
2018-04-02T23:49:40.035Z,82.30
2018-04-02T23:52:06.144Z,82.30
2018-04-02T23:54:32.223Z,82.90
2018-04-02T23:56:59.074Z,83.60
2018-04-02T23:59:25.182Z,83.60
